sensor_id;sensor_type;location;lat;lon;timestamp;P1;durP1;ratioP1;P2;durP2;ratioP2
5776;SDS011;2914;42.668;23.346;2023-05-14T00:00:08;15.20;;;5.07;;
5776;SDS011;2914;42.668;23.346;2023-05-14T00:02:39;3.80;;;3.37;;
5776;SDS011;2914;42.668;23.346;2023-05-14T00:05:08;18.90;;;5.10;;
5776;SDS011;2914;42.668;23.346;2023-05-14T00:07:37;13.17;;;4.00;;
5776;SDS011;2914;42.668;23.346;2023-05-14T00:10:07;15.00;;;5.03;;
5776;SDS011;2914;42.668;23.346;2023-05-14T00:12:37;10.40;;;4.60;;
5776;SDS011;2914;42.668;23.346;2023-05-14T00:15:08;13.40;;;4.87;;
5776;SDS011;2914;42.668;23.346;2023-05-14T00:17:37;22.07;;;5.27;;
5776;SDS011;2914;42.668;23.346;2023-05-14T00:20:08;14.63;;;4.73;;
5776;SDS011;2914;42.668;23.346;2023-05-14T00:22:38;4.40;;;3.67;;
5776;SDS011;2914;42.668;23.346;2023-05-14T00:25:08;16.97;;;4.67;;
5776;SDS011;2914;42.668;23.346;2023-05-14T00:27:37;7.53;;;3.60;;
5776;SDS011;2914;42.668;23.346;2023-05-14T00:30:06;24.53;;;5.97;;
5776;SDS011;2914;42.668;23.346;2023-05-14T00:32:36;6.43;;;3.77;;
5776;SDS011;2914;42.668;23.346;2023-05-14T00:35:06;23.13;;;6.13;;
5776;SDS011;2914;42.668;23.346;2023-05-14T00:37:36;8.57;;;3.83;;
5776;SDS011;2914;42.668;23.346;2023-05-14T00:40:06;16.47;;;5.33;;
5776;SDS011;2914;42.668;23.346;2023-05-14T00:42:38;8.80;;;4.23;;
5776;SDS011;2914;42.668;23.346;2023-05-14T00:45:07;20.00;;;5.60;;
5776;SDS011;2914;42.668;23.346;2023-05-14T00:47:37;7.80;;;3.60;;
5776;SDS011;2914;42.668;23.346;2023-05-14T00:50:07;16.40;;;4.80;;
5776;SDS011;2914;42.668;23.346;2023-05-14T00:52:37;8.67;;;4.07;;
5776;SDS011;2914;42.668;23.346;2023-05-14T00:55:07;13.83;;;5.00;;
5776;SDS011;2914;42.668;23.346;2023-05-14T00:57:39;4.70;;;4.23;;
5776;SDS011;2914;42.668;23.346;2023-05-14T01:00:09;14.27;;;5.30;;
5776;SDS011;2914;42.668;23.346;2023-05-14T01:02:39;7.10;;;4.33;;
5776;SDS011;2914;42.668;23.346;2023-05-14T01:07:48;4.63;;;3.50;;
5776;SDS011;2914;42.668;23.346;2023-05-14T01:10:23;10.63;;;4.33;;
5776;SDS011;2914;42.668;23.346;2023-05-14T01:15:08;9.30;;;5.17;;
5776;SDS011;2914;42.668;23.346;2023-05-14T01:17:38;3.80;;;3.40;;
5776;SDS011;2914;42.668;23.346;2023-05-14T01:20:10;5.30;;;4.60;;
5776;SDS011;2914;42.668;23.346;2023-05-14T01:22:39;4.50;;;4.00;;
5776;SDS011;2914;42.668;23.346;2023-05-14T01:25:09;13.10;;;4.83;;
5776;SDS011;2914;42.668;23.346;2023-05-14T01:27:40;10.43;;;3.70;;
5776;SDS011;2914;42.668;23.346;2023-05-14T01:30:12;10.20;;;4.80;;
5776;SDS011;2914;42.668;23.346;2023-05-14T01:32:43;4.33;;;3.70;;
5776;SDS011;2914;42.668;23.346;2023-05-14T01:35:36;4.37;;;3.60;;
5776;SDS011;2914;42.668;23.346;2023-05-14T01:38:06;7.30;;;4.20;;
5776;SDS011;2914;42.668;23.346;2023-05-14T01:40:36;9.10;;;3.90;;
5776;SDS011;2914;42.668;23.346;2023-05-14T01:43:06;13.43;;;4.23;;
5776;SDS011;2914;42.668;23.346;2023-05-14T01:45:36;5.37;;;4.50;;
5776;SDS011;2914;42.668;23.346;2023-05-14T01:48:05;8.67;;;4.63;;
5776;SDS011;2914;42.668;23.346;2023-05-14T01:50:35;9.40;;;4.00;;
5776;SDS011;2914;42.668;23.346;2023-05-14T01:53:03;10.43;;;3.93;;
5776;SDS011;2914;42.668;23.346;2023-05-14T01:55:33;14.13;;;4.53;;
5776;SDS011;2914;42.668;23.346;2023-05-14T01:58:02;11.50;;;4.50;;
5776;SDS011;2914;42.668;23.346;2023-05-14T02:00:31;9.10;;;3.23;;
5776;SDS011;2914;42.668;23.346;2023-05-14T02:03:00;8.20;;;4.00;;
5776;SDS011;2914;42.668;23.346;2023-05-14T02:05:29;9.47;;;3.90;;
5776;SDS011;2914;42.668;23.346;2023-05-14T02:07:58;3.70;;;3.30;;
5776;SDS011;2914;42.668;23.346;2023-05-14T02:10:27;4.90;;;3.47;;
5776;SDS011;2914;42.668;23.346;2023-05-14T02:12:56;6.80;;;3.60;;
5776;SDS011;2914;42.668;23.346;2023-05-14T02:15:25;6.33;;;3.80;;
5776;SDS011;2914;42.668;23.346;2023-05-14T02:17:54;5.97;;;3.93;;
5776;SDS011;2914;42.668;23.346;2023-05-14T02:20:23;4.37;;;3.57;;
5776;SDS011;2914;42.668;23.346;2023-05-14T02:22:52;3.83;;;3.40;;
5776;SDS011;2914;42.668;23.346;2023-05-14T02:25:21;4.00;;;3.60;;
5776;SDS011;2914;42.668;23.346;2023-05-14T02:27:50;5.00;;;3.17;;
5776;SDS011;2914;42.668;23.346;2023-05-14T02:30:19;7.43;;;3.90;;
5776;SDS011;2914;42.668;23.346;2023-05-14T02:32:48;4.93;;;3.77;;
5776;SDS011;2914;42.668;23.346;2023-05-14T02:35:17;8.93;;;4.10;;
5776;SDS011;2914;42.668;23.346;2023-05-14T02:37:47;3.97;;;3.57;;
5776;SDS011;2914;42.668;23.346;2023-05-14T02:40:16;13.23;;;4.70;;
5776;SDS011;2914;42.668;23.346;2023-05-14T02:42:45;9.03;;;3.93;;
5776;SDS011;2914;42.668;23.346;2023-05-14T02:45:14;13.83;;;5.00;;
5776;SDS011;2914;42.668;23.346;2023-05-14T02:47:43;8.33;;;3.17;;
5776;SDS011;2914;42.668;23.346;2023-05-14T02:50:12;7.07;;;4.07;;
5776;SDS011;2914;42.668;23.346;2023-05-14T02:52:41;6.90;;;3.70;;
5776;SDS011;2914;42.668;23.346;2023-05-14T02:55:11;10.43;;;4.37;;
5776;SDS011;2914;42.668;23.346;2023-05-14T02:57:40;6.63;;;3.50;;
5776;SDS011;2914;42.668;23.346;2023-05-14T03:00:10;32.30;;;6.20;;
5776;SDS011;2914;42.668;23.346;2023-05-14T03:02:40;7.40;;;4.10;;
5776;SDS011;2914;42.668;23.346;2023-05-14T03:05:09;26.60;;;6.43;;
5776;SDS011;2914;42.668;23.346;2023-05-14T03:07:38;4.37;;;3.60;;
5776;SDS011;2914;42.668;23.346;2023-05-14T03:10:08;3.53;;;3.23;;
5776;SDS011;2914;42.668;23.346;2023-05-14T03:12:38;5.00;;;3.70;;
5776;SDS011;2914;42.668;23.346;2023-05-14T03:15:08;5.50;;;3.77;;
5776;SDS011;2914;42.668;23.346;2023-05-14T03:17:38;5.97;;;3.73;;
5776;SDS011;2914;42.668;23.346;2023-05-14T03:20:07;4.27;;;3.40;;
5776;SDS011;2914;42.668;23.346;2023-05-14T03:22:38;4.83;;;3.63;;
5776;SDS011;2914;42.668;23.346;2023-05-14T03:25:08;10.47;;;4.17;;
5776;SDS011;2914;42.668;23.346;2023-05-14T03:27:37;4.13;;;3.70;;
5776;SDS011;2914;42.668;23.346;2023-05-14T03:30:07;6.90;;;4.07;;
5776;SDS011;2914;42.668;23.346;2023-05-14T03:32:37;10.60;;;4.30;;
5776;SDS011;2914;42.668;23.346;2023-05-14T03:35:08;4.70;;;3.47;;
5776;SDS011;2914;42.668;23.346;2023-05-14T03:37:37;5.80;;;3.77;;
5776;SDS011;2914;42.668;23.346;2023-05-14T03:40:07;7.73;;;4.13;;
5776;SDS011;2914;42.668;23.346;2023-05-14T03:42:37;5.50;;;3.83;;
5776;SDS011;2914;42.668;23.346;2023-05-14T03:45:07;11.00;;;4.50;;
5776;SDS011;2914;42.668;23.346;2023-05-14T03:47:37;9.30;;;4.00;;
5776;SDS011;2914;42.668;23.346;2023-05-14T03:50:07;14.87;;;5.00;;
5776;SDS011;2914;42.668;23.346;2023-05-14T03:52:36;5.67;;;3.90;;
5776;SDS011;2914;42.668;23.346;2023-05-14T03:55:07;7.27;;;3.77;;
5776;SDS011;2914;42.668;23.346;2023-05-14T03:57:36;11.70;;;4.47;;
5776;SDS011;2914;42.668;23.346;2023-05-14T04:00:08;13.53;;;4.80;;
5776;SDS011;2914;42.668;23.346;2023-05-14T04:02:38;15.20;;;5.30;;
5776;SDS011;2914;42.668;23.346;2023-05-14T04:05:08;5.40;;;3.70;;
5776;SDS011;2914;42.668;23.346;2023-05-14T04:07:37;5.43;;;3.27;;
5776;SDS011;2914;42.668;23.346;2023-05-14T04:17:07;5.27;;;3.87;;
5776;SDS011;2914;42.668;23.346;2023-05-14T04:19:36;7.43;;;3.60;;
5776;SDS011;2914;42.668;23.346;2023-05-14T04:22:05;7.47;;;4.07;;
5776;SDS011;2914;42.668;23.346;2023-05-14T04:24:35;7.77;;;4.60;;
5776;SDS011;2914;42.668;23.346;2023-05-14T04:27:04;11.03;;;5.10;;
5776;SDS011;2914;42.668;23.346;2023-05-14T04:29:33;9.07;;;4.73;;
5776;SDS011;2914;42.668;23.346;2023-05-14T04:32:02;7.67;;;3.87;;
5776;SDS011;2914;42.668;23.346;2023-05-14T04:34:34;9.73;;;4.00;;
5776;SDS011;2914;42.668;23.346;2023-05-14T04:37:04;4.07;;;3.67;;
5776;SDS011;2914;42.668;23.346;2023-05-14T04:39:33;7.93;;;3.40;;
5776;SDS011;2914;42.668;23.346;2023-05-14T04:42:02;10.20;;;4.47;;
5776;SDS011;2914;42.668;23.346;2023-05-14T04:44:34;9.57;;;3.70;;
5776;SDS011;2914;42.668;23.346;2023-05-14T04:47:03;7.67;;;4.27;;
5776;SDS011;2914;42.668;23.346;2023-05-14T04:49:32;15.30;;;4.53;;
5776;SDS011;2914;42.668;23.346;2023-05-14T04:52:02;8.00;;;4.40;;
5776;SDS011;2914;42.668;23.346;2023-05-14T04:54:31;9.13;;;4.20;;
5776;SDS011;2914;42.668;23.346;2023-05-14T04:57:01;6.10;;;3.60;;
5776;SDS011;2914;42.668;23.346;2023-05-14T04:59:30;12.67;;;4.30;;
5776;SDS011;2914;42.668;23.346;2023-05-14T05:01:59;5.80;;;4.03;;
5776;SDS011;2914;42.668;23.346;2023-05-14T05:04:28;15.03;;;4.87;;
5776;SDS011;2914;42.668;23.346;2023-05-14T05:06:57;6.53;;;3.63;;
5776;SDS011;2914;42.668;23.346;2023-05-14T05:09:26;14.20;;;4.93;;
5776;SDS011;2914;42.668;23.346;2023-05-14T05:11:55;10.63;;;4.40;;
5776;SDS011;2914;42.668;23.346;2023-05-14T05:14:26;12.17;;;4.67;;
5776;SDS011;2914;42.668;23.346;2023-05-14T05:16:55;9.67;;;4.60;;
5776;SDS011;2914;42.668;23.346;2023-05-14T05:22:30;9.10;;;5.50;;
5776;SDS011;2914;42.668;23.346;2023-05-14T05:24:59;8.40;;;4.70;;
5776;SDS011;2914;42.668;23.346;2023-05-14T05:27:31;8.90;;;4.53;;
5776;SDS011;2914;42.668;23.346;2023-05-14T05:30:00;12.60;;;5.40;;
5776;SDS011;2914;42.668;23.346;2023-05-14T05:32:29;24.33;;;6.90;;
5776;SDS011;2914;42.668;23.346;2023-05-14T05:34:58;8.90;;;4.97;;
5776;SDS011;2914;42.668;23.346;2023-05-14T05:37:28;20.27;;;6.00;;
5776;SDS011;2914;42.668;23.346;2023-05-14T05:39:58;7.20;;;4.60;;
5776;SDS011;2914;42.668;23.346;2023-05-14T05:42:27;20.27;;;5.70;;
5776;SDS011;2914;42.668;23.346;2023-05-14T05:44:56;16.00;;;5.10;;
5776;SDS011;2914;42.668;23.346;2023-05-14T05:47:25;16.73;;;5.70;;
5776;SDS011;2914;42.668;23.346;2023-05-14T05:49:55;18.80;;;5.63;;
5776;SDS011;2914;42.668;23.346;2023-05-14T05:52:24;16.80;;;6.00;;
5776;SDS011;2914;42.668;23.346;2023-05-14T05:54:53;9.90;;;5.77;;
5776;SDS011;2914;42.668;23.346;2023-05-14T05:57:22;17.27;;;6.07;;
5776;SDS011;2914;42.668;23.346;2023-05-14T05:59:52;21.63;;;6.70;;
5776;SDS011;2914;42.668;23.346;2023-05-14T06:02:21;9.33;;;5.00;;
5776;SDS011;2914;42.668;23.346;2023-05-14T06:04:51;12.07;;;5.37;;
5776;SDS011;2914;42.668;23.346;2023-05-14T06:07:20;9.63;;;4.77;;
5776;SDS011;2914;42.668;23.346;2023-05-14T06:09:49;11.53;;;5.73;;
5776;SDS011;2914;42.668;23.346;2023-05-14T06:12:18;10.77;;;6.73;;
5776;SDS011;2914;42.668;23.346;2023-05-14T06:14:47;9.63;;;5.73;;
5776;SDS011;2914;42.668;23.346;2023-05-14T06:17:16;19.93;;;6.73;;
5776;SDS011;2914;42.668;23.346;2023-05-14T06:19:45;11.20;;;6.93;;
5776;SDS011;2914;42.668;23.346;2023-05-14T06:22:14;7.40;;;6.23;;
5776;SDS011;2914;42.668;23.346;2023-05-14T06:24:44;9.43;;;4.87;;
5776;SDS011;2914;42.668;23.346;2023-05-14T06:27:14;8.90;;;5.93;;
5776;SDS011;2914;42.668;23.346;2023-05-14T06:29:43;9.70;;;6.40;;
5776;SDS011;2914;42.668;23.346;2023-05-14T06:32:12;10.90;;;6.17;;
5776;SDS011;2914;42.668;23.346;2023-05-14T06:34:41;15.80;;;7.13;;
5776;SDS011;2914;42.668;23.346;2023-05-14T06:37:10;18.37;;;7.60;;
5776;SDS011;2914;42.668;23.346;2023-05-14T06:39:39;10.50;;;6.13;;
5776;SDS011;2914;42.668;23.346;2023-05-14T06:42:10;13.63;;;7.20;;
5776;SDS011;2914;42.668;23.346;2023-05-14T06:44:39;14.10;;;7.40;;
5776;SDS011;2914;42.668;23.346;2023-05-14T06:47:09;9.87;;;6.20;;
5776;SDS011;2914;42.668;23.346;2023-05-14T06:53:00;10.10;;;6.80;;
5776;SDS011;2914;42.668;23.346;2023-05-14T06:55:29;16.20;;;7.90;;
5776;SDS011;2914;42.668;23.346;2023-05-14T06:57:58;12.47;;;7.43;;
5776;SDS011;2914;42.668;23.346;2023-05-14T07:00:27;22.73;;;10.30;;
5776;SDS011;2914;42.668;23.346;2023-05-14T07:02:56;14.30;;;8.50;;
5776;SDS011;2914;42.668;23.346;2023-05-14T07:05:25;57.27;;;11.80;;
5776;SDS011;2914;42.668;23.346;2023-05-14T07:07:54;12.60;;;7.27;;
5776;SDS011;2914;42.668;23.346;2023-05-14T07:10:24;9.67;;;7.43;;
5776;SDS011;2914;42.668;23.346;2023-05-14T07:12:53;13.77;;;7.50;;
5776;SDS011;2914;42.668;23.346;2023-05-14T07:15:22;19.63;;;8.80;;
5776;SDS011;2914;42.668;23.346;2023-05-14T07:19:03;14.47;;;8.30;;
5776;SDS011;2914;42.668;23.346;2023-05-14T07:21:33;16.57;;;8.80;;
5776;SDS011;2914;42.668;23.346;2023-05-14T07:24:02;26.87;;;9.50;;
5776;SDS011;2914;42.668;23.346;2023-05-14T07:26:32;33.77;;;10.33;;
5776;SDS011;2914;42.668;23.346;2023-05-14T07:29:01;19.83;;;9.13;;
5776;SDS011;2914;42.668;23.346;2023-05-14T07:31:31;31.90;;;9.57;;
5776;SDS011;2914;42.668;23.346;2023-05-14T07:37:28;13.37;;;8.53;;
5776;SDS011;2914;42.668;23.346;2023-05-14T07:39:57;16.63;;;7.67;;
5776;SDS011;2914;42.668;23.346;2023-05-14T07:42:26;14.77;;;7.50;;
5776;SDS011;2914;42.668;23.346;2023-05-14T07:44:55;18.13;;;8.50;;
5776;SDS011;2914;42.668;23.346;2023-05-14T07:47:24;19.33;;;7.70;;
5776;SDS011;2914;42.668;23.346;2023-05-14T07:49:54;17.80;;;7.70;;
5776;SDS011;2914;42.668;23.346;2023-05-14T07:52:23;21.73;;;7.57;;
5776;SDS011;2914;42.668;23.346;2023-05-14T07:54:52;19.60;;;8.20;;
5776;SDS011;2914;42.668;23.346;2023-05-14T07:57:21;12.83;;;7.63;;
5776;SDS011;2914;42.668;23.346;2023-05-14T07:59:51;20.17;;;7.90;;
5776;SDS011;2914;42.668;23.346;2023-05-14T08:02:20;13.73;;;6.37;;
5776;SDS011;2914;42.668;23.346;2023-05-14T08:04:49;18.80;;;7.73;;
5776;SDS011;2914;42.668;23.346;2023-05-14T08:09:24;8.60;;;6.57;;
5776;SDS011;2914;42.668;23.346;2023-05-14T08:11:53;14.13;;;7.03;;
5776;SDS011;2914;42.668;23.346;2023-05-14T08:14:22;12.63;;;7.60;;
5776;SDS011;2914;42.668;23.346;2023-05-14T08:16:51;23.87;;;8.93;;
5776;SDS011;2914;42.668;23.346;2023-05-14T08:19:21;10.90;;;7.67;;
5776;SDS011;2914;42.668;23.346;2023-05-14T08:21:52;10.77;;;6.80;;
5776;SDS011;2914;42.668;23.346;2023-05-14T08:24:21;16.10;;;6.97;;
5776;SDS011;2914;42.668;23.346;2023-05-14T08:26:50;13.23;;;7.03;;
5776;SDS011;2914;42.668;23.346;2023-05-14T08:29:19;17.80;;;7.40;;
5776;SDS011;2914;42.668;23.346;2023-05-14T08:31:48;13.80;;;7.20;;
5776;SDS011;2914;42.668;23.346;2023-05-14T08:34:17;9.60;;;6.70;;
5776;SDS011;2914;42.668;23.346;2023-05-14T08:36:47;20.47;;;8.30;;
5776;SDS011;2914;42.668;23.346;2023-05-14T08:39:16;15.37;;;7.70;;
5776;SDS011;2914;42.668;23.346;2023-05-14T08:41:45;11.83;;;7.30;;
5776;SDS011;2914;42.668;23.346;2023-05-14T08:44:17;28.87;;;9.47;;
5776;SDS011;2914;42.668;23.346;2023-05-14T08:46:46;22.37;;;7.50;;
5776;SDS011;2914;42.668;23.346;2023-05-14T08:49:20;15.30;;;7.80;;
5776;SDS011;2914;42.668;23.346;2023-05-14T08:53:51;15.97;;;7.73;;
5776;SDS011;2914;42.668;23.346;2023-05-14T08:56:20;14.60;;;7.30;;
5776;SDS011;2914;42.668;23.346;2023-05-14T08:58:51;14.43;;;7.33;;
5776;SDS011;2914;42.668;23.346;2023-05-14T09:01:20;12.90;;;7.57;;
5776;SDS011;2914;42.668;23.346;2023-05-14T09:03:50;11.07;;;7.97;;
5776;SDS011;2914;42.668;23.346;2023-05-14T09:06:20;15.27;;;7.73;;
5776;SDS011;2914;42.668;23.346;2023-05-14T09:08:50;19.27;;;7.90;;
5776;SDS011;2914;42.668;23.346;2023-05-14T09:11:20;18.07;;;8.57;;
5776;SDS011;2914;42.668;23.346;2023-05-14T09:13:49;13.10;;;8.07;;
5776;SDS011;2914;42.668;23.346;2023-05-14T09:16:18;13.83;;;7.70;;
5776;SDS011;2914;42.668;23.346;2023-05-14T09:18:48;20.10;;;8.20;;
5776;SDS011;2914;42.668;23.346;2023-05-14T09:21:19;18.00;;;8.00;;
5776;SDS011;2914;42.668;23.346;2023-05-14T09:23:48;17.17;;;8.63;;
5776;SDS011;2914;42.668;23.346;2023-05-14T09:26:23;17.77;;;7.23;;
5776;SDS011;2914;42.668;23.346;2023-05-14T09:28:53;17.90;;;7.13;;
5776;SDS011;2914;42.668;23.346;2023-05-14T09:31:25;14.33;;;7.23;;
5776;SDS011;2914;42.668;23.346;2023-05-14T09:33:55;27.97;;;9.97;;
5776;SDS011;2914;42.668;23.346;2023-05-14T09:36:25;23.37;;;8.87;;
5776;SDS011;2914;42.668;23.346;2023-05-14T09:38:55;18.23;;;9.73;;
5776;SDS011;2914;42.668;23.346;2023-05-14T09:41:24;30.43;;;10.77;;
5776;SDS011;2914;42.668;23.346;2023-05-14T09:43:54;20.17;;;10.57;;
5776;SDS011;2914;42.668;23.346;2023-05-14T09:46:23;21.37;;;9.83;;
5776;SDS011;2914;42.668;23.346;2023-05-14T09:48:55;12.17;;;8.60;;
5776;SDS011;2914;42.668;23.346;2023-05-14T09:51:24;27.67;;;10.47;;
5776;SDS011;2914;42.668;23.346;2023-05-14T09:53:55;20.63;;;10.20;;
5776;SDS011;2914;42.668;23.346;2023-05-14T09:56:25;28.00;;;12.20;;
5776;SDS011;2914;42.668;23.346;2023-05-14T09:58:54;28.90;;;11.93;;
5776;SDS011;2914;42.668;23.346;2023-05-14T10:01:23;14.07;;;9.97;;
5776;SDS011;2914;42.668;23.346;2023-05-14T10:03:54;17.90;;;9.63;;
5776;SDS011;2914;42.668;23.346;2023-05-14T10:06:24;18.13;;;9.07;;
5776;SDS011;2914;42.668;23.346;2023-05-14T10:08:59;17.40;;;10.67;;
5776;SDS011;2914;42.668;23.346;2023-05-14T10:12:20;14.83;;;9.23;;
5776;SDS011;2914;42.668;23.346;2023-05-14T10:14:50;18.13;;;9.00;;
5776;SDS011;2914;42.668;23.346;2023-05-14T10:17:22;13.50;;;8.93;;
5776;SDS011;2914;42.668;23.346;2023-05-14T10:19:54;17.67;;;9.43;;
5776;SDS011;2914;42.668;23.346;2023-05-14T10:22:26;17.37;;;9.20;;
5776;SDS011;2914;42.668;23.346;2023-05-14T10:24:57;22.17;;;11.13;;
5776;SDS011;2914;42.668;23.346;2023-05-14T10:27:29;13.37;;;9.27;;
5776;SDS011;2914;42.668;23.346;2023-05-14T10:29:58;22.93;;;10.60;;
5776;SDS011;2914;42.668;23.346;2023-05-14T10:32:29;13.40;;;9.77;;
5776;SDS011;2914;42.668;23.346;2023-05-14T10:35:01;13.73;;;10.07;;
5776;SDS011;2914;42.668;23.346;2023-05-14T10:37:31;26.93;;;10.90;;
5776;SDS011;2914;42.668;23.346;2023-05-14T10:40:01;15.10;;;9.87;;
5776;SDS011;2914;42.668;23.346;2023-05-14T10:42:33;22.27;;;10.17;;
5776;SDS011;2914;42.668;23.346;2023-05-14T10:45:07;19.50;;;10.60;;
5776;SDS011;2914;42.668;23.346;2023-05-14T10:47:37;24.53;;;11.33;;
5776;SDS011;2914;42.668;23.346;2023-05-14T10:50:09;21.17;;;11.13;;
5776;SDS011;2914;42.668;23.346;2023-05-14T10:52:41;31.53;;;12.00;;
5776;SDS011;2914;42.668;23.346;2023-05-14T10:55:12;30.97;;;10.27;;
5776;SDS011;2914;42.668;23.346;2023-05-14T10:57:43;25.83;;;10.47;;
5776;SDS011;2914;42.668;23.346;2023-05-14T11:00:15;19.23;;;10.77;;
5776;SDS011;2914;42.668;23.346;2023-05-14T11:07:54;21.03;;;10.80;;
5776;SDS011;2914;42.668;23.346;2023-05-14T11:10:25;19.80;;;10.83;;
5776;SDS011;2914;42.668;23.346;2023-05-14T11:12:56;30.73;;;12.43;;
5776;SDS011;2914;42.668;23.346;2023-05-14T11:16:22;26.47;;;12.53;;
5776;SDS011;2914;42.668;23.346;2023-05-14T11:19:00;24.60;;;11.80;;
5776;SDS011;2914;42.668;23.346;2023-05-14T11:21:30;22.53;;;10.67;;
5776;SDS011;2914;42.668;23.346;2023-05-14T11:23:59;18.40;;;9.83;;
5776;SDS011;2914;42.668;23.346;2023-05-14T11:26:31;19.57;;;9.80;;
5776;SDS011;2914;42.668;23.346;2023-05-14T11:29:00;14.63;;;9.80;;
5776;SDS011;2914;42.668;23.346;2023-05-14T11:31:29;13.97;;;9.60;;
5776;SDS011;2914;42.668;23.346;2023-05-14T11:33:58;22.00;;;10.67;;
5776;SDS011;2914;42.668;23.346;2023-05-14T11:36:29;22.97;;;12.50;;
5776;SDS011;2914;42.668;23.346;2023-05-14T11:38:58;16.33;;;10.53;;
5776;SDS011;2914;42.668;23.346;2023-05-14T11:41:33;15.50;;;10.00;;
5776;SDS011;2914;42.668;23.346;2023-05-14T11:44:02;15.83;;;10.30;;
5776;SDS011;2914;42.668;23.346;2023-05-14T11:46:31;16.00;;;10.27;;
5776;SDS011;2914;42.668;23.346;2023-05-14T11:49:01;21.13;;;10.70;;
5776;SDS011;2914;42.668;23.346;2023-05-14T11:51:31;19.27;;;10.43;;
5776;SDS011;2914;42.668;23.346;2023-05-14T11:54:02;20.63;;;10.53;;
5776;SDS011;2914;42.668;23.346;2023-05-14T11:56:31;15.40;;;9.83;;
5776;SDS011;2914;42.668;23.346;2023-05-14T11:59:01;16.10;;;10.03;;
5776;SDS011;2914;42.668;23.346;2023-05-14T12:01:34;21.53;;;10.60;;
5776;SDS011;2914;42.668;23.346;2023-05-14T12:04:04;20.50;;;10.77;;
5776;SDS011;2914;42.668;23.346;2023-05-14T12:06:33;16.23;;;11.23;;
5776;SDS011;2914;42.668;23.346;2023-05-14T12:09:04;31.83;;;11.40;;
5776;SDS011;2914;42.668;23.346;2023-05-14T12:11:35;21.27;;;10.53;;
5776;SDS011;2914;42.668;23.346;2023-05-14T12:14:09;19.63;;;9.70;;
5776;SDS011;2914;42.668;23.346;2023-05-14T12:16:40;14.77;;;9.90;;
5776;SDS011;2914;42.668;23.346;2023-05-14T12:19:13;29.43;;;10.40;;
5776;SDS011;2914;42.668;23.346;2023-05-14T12:21:43;17.27;;;10.10;;
5776;SDS011;2914;42.668;23.346;2023-05-14T12:24:17;14.40;;;9.13;;
5776;SDS011;2914;42.668;23.346;2023-05-14T12:26:46;14.80;;;10.10;;
5776;SDS011;2914;42.668;23.346;2023-05-14T12:29:17;23.43;;;8.30;;
5776;SDS011;2914;42.668;23.346;2023-05-14T12:31:48;23.73;;;10.30;;
5776;SDS011;2914;42.668;23.346;2023-05-14T12:34:17;21.13;;;11.37;;
5776;SDS011;2914;42.668;23.346;2023-05-14T12:36:46;21.87;;;9.87;;
5776;SDS011;2914;42.668;23.346;2023-05-14T12:39:16;23.80;;;10.80;;
5776;SDS011;2914;42.668;23.346;2023-05-14T12:41:45;29.70;;;11.37;;
5776;SDS011;2914;42.668;23.346;2023-05-14T12:44:14;18.43;;;10.27;;
5776;SDS011;2914;42.668;23.346;2023-05-14T12:46:43;26.33;;;10.90;;
5776;SDS011;2914;42.668;23.346;2023-05-14T12:49:13;22.37;;;11.20;;
5776;SDS011;2914;42.668;23.346;2023-05-14T12:51:45;31.83;;;11.23;;
5776;SDS011;2914;42.668;23.346;2023-05-14T12:54:14;18.50;;;9.60;;
5776;SDS011;2914;42.668;23.346;2023-05-14T12:56:43;27.37;;;10.20;;
5776;SDS011;2914;42.668;23.346;2023-05-14T12:59:12;19.60;;;9.07;;
5776;SDS011;2914;42.668;23.346;2023-05-14T13:01:41;15.90;;;10.10;;
5776;SDS011;2914;42.668;23.346;2023-05-14T13:04:10;21.53;;;10.00;;
5776;SDS011;2914;42.668;23.346;2023-05-14T13:06:39;17.40;;;11.47;;
5776;SDS011;2914;42.668;23.346;2023-05-14T13:09:09;16.20;;;9.93;;
5776;SDS011;2914;42.668;23.346;2023-05-14T13:11:38;18.03;;;10.70;;
5776;SDS011;2914;42.668;23.346;2023-05-14T13:14:07;17.80;;;10.60;;
5776;SDS011;2914;42.668;23.346;2023-05-14T13:16:36;21.30;;;10.30;;
5776;SDS011;2914;42.668;23.346;2023-05-14T13:19:05;15.57;;;10.10;;
5776;SDS011;2914;42.668;23.346;2023-05-14T13:21:34;20.47;;;9.77;;
5776;SDS011;2914;42.668;23.346;2023-05-14T13:24:04;23.53;;;10.07;;
5776;SDS011;2914;42.668;23.346;2023-05-14T13:26:35;17.50;;;9.60;;
5776;SDS011;2914;42.668;23.346;2023-05-14T13:29:04;14.60;;;8.80;;
5776;SDS011;2914;42.668;23.346;2023-05-14T13:31:34;19.97;;;9.80;;
5776;SDS011;2914;42.668;23.346;2023-05-14T13:34:03;24.87;;;10.80;;
5776;SDS011;2914;42.668;23.346;2023-05-14T13:36:32;29.33;;;10.93;;
5776;SDS011;2914;42.668;23.346;2023-05-14T13:39:03;23.77;;;11.30;;
5776;SDS011;2914;42.668;23.346;2023-05-14T13:41:32;22.07;;;11.27;;
5776;SDS011;2914;42.668;23.346;2023-05-14T13:44:03;28.97;;;12.07;;
5776;SDS011;2914;42.668;23.346;2023-05-14T13:46:32;31.83;;;12.83;;
5776;SDS011;2914;42.668;23.346;2023-05-14T13:49:01;18.00;;;10.73;;
5776;SDS011;2914;42.668;23.346;2023-05-14T13:51:30;30.77;;;13.00;;
5776;SDS011;2914;42.668;23.346;2023-05-14T13:53:59;34.53;;;12.60;;
5776;SDS011;2914;42.668;23.346;2023-05-14T13:56:28;22.77;;;11.00;;
5776;SDS011;2914;42.668;23.346;2023-05-14T13:58:57;32.53;;;12.90;;
5776;SDS011;2914;42.668;23.346;2023-05-14T14:01:26;25.93;;;12.20;;
5776;SDS011;2914;42.668;23.346;2023-05-14T14:03:56;31.83;;;12.60;;
5776;SDS011;2914;42.668;23.346;2023-05-14T14:06:25;20.00;;;12.67;;
5776;SDS011;2914;42.668;23.346;2023-05-14T14:08:56;32.57;;;13.53;;
5776;SDS011;2914;42.668;23.346;2023-05-14T14:11:25;28.80;;;13.77;;
5776;SDS011;2914;42.668;23.346;2023-05-14T14:13:54;25.30;;;12.67;;
5776;SDS011;2914;42.668;23.346;2023-05-14T14:16:23;15.50;;;11.17;;
5776;SDS011;2914;42.668;23.346;2023-05-14T14:18:52;24.50;;;12.97;;
5776;SDS011;2914;42.668;23.346;2023-05-14T14:21:22;16.77;;;11.77;;
5776;SDS011;2914;42.668;23.346;2023-05-14T14:23:51;51.80;;;16.40;;
5776;SDS011;2914;42.668;23.346;2023-05-14T14:26:20;23.47;;;13.27;;
5776;SDS011;2914;42.668;23.346;2023-05-14T14:28:51;50.97;;;16.50;;
5776;SDS011;2914;42.668;23.346;2023-05-14T14:31:20;25.60;;;15.90;;
5776;SDS011;2914;42.668;23.346;2023-05-14T14:33:49;22.30;;;13.40;;
5776;SDS011;2914;42.668;23.346;2023-05-14T14:36:19;24.23;;;13.83;;
5776;SDS011;2914;42.668;23.346;2023-05-14T14:38:48;20.20;;;14.27;;
5776;SDS011;2914;42.668;23.346;2023-05-14T14:41:17;26.20;;;15.33;;
5776;SDS011;2914;42.668;23.346;2023-05-14T14:43:47;25.47;;;15.40;;
5776;SDS011;2914;42.668;23.346;2023-05-14T14:46:16;24.77;;;14.90;;
5776;SDS011;2914;42.668;23.346;2023-05-14T14:48:45;28.37;;;16.13;;
5776;SDS011;2914;42.668;23.346;2023-05-14T14:56:02;30.53;;;16.17;;
5776;SDS011;2914;42.668;23.346;2023-05-14T14:58:33;18.00;;;14.10;;
5776;SDS011;2914;42.668;23.346;2023-05-14T15:01:02;26.93;;;15.17;;
5776;SDS011;2914;42.668;23.346;2023-05-14T15:03:31;25.13;;;14.30;;
5776;SDS011;2914;42.668;23.346;2023-05-14T15:06:01;28.17;;;16.10;;
5776;SDS011;2914;42.668;23.346;2023-05-14T15:08:30;23.00;;;14.87;;
5776;SDS011;2914;42.668;23.346;2023-05-14T15:11:00;27.03;;;15.83;;
5776;SDS011;2914;42.668;23.346;2023-05-14T15:13:31;22.43;;;14.30;;
5776;SDS011;2914;42.668;23.346;2023-05-14T15:16:00;27.67;;;15.10;;
5776;SDS011;2914;42.668;23.346;2023-05-14T15:18:29;28.67;;;17.00;;
5776;SDS011;2914;42.668;23.346;2023-05-14T15:20:58;46.73;;;18.60;;
5776;SDS011;2914;42.668;23.346;2023-05-14T15:23:27;26.00;;;15.47;;
5776;SDS011;2914;42.668;23.346;2023-05-14T15:25:57;44.33;;;16.50;;
5776;SDS011;2914;42.668;23.346;2023-05-14T15:28:26;42.27;;;18.60;;
5776;SDS011;2914;42.668;23.346;2023-05-14T15:30:55;37.50;;;15.77;;
5776;SDS011;2914;42.668;23.346;2023-05-14T15:33:25;21.37;;;14.60;;
5776;SDS011;2914;42.668;23.346;2023-05-14T15:35:54;20.13;;;15.13;;
5776;SDS011;2914;42.668;23.346;2023-05-14T15:38:23;22.47;;;14.97;;
5776;SDS011;2914;42.668;23.346;2023-05-14T15:40:52;35.73;;;14.83;;